Aérodrome :
LOGIN :

S'inscrire | Disclaimer

   EN    FR    IT 

 










Légende :    VFR   VFR Marginal   IFR   IFR Intensif   IFR Très Intensif
Visi : 
Plafond : 
>= 8 km
>= 3000ft
5 à 8 km
1000 à 3000 ft
1500m à 5 km
500 à 1000 ft
800 à 1500m
200 à 500 ft
< 800m
< 200 ft
Symboles :   Orages  Brouillard  Fortes neiges  Fortes précipitations  Vent > 20 kt
SIGMETs :   Divers  Orages  Givrage  Turbulence  Onde Orograph.  Cendres Volcan.







- Altitude de l'aérodrome : 219 ft
- Code IATA : DNR
- Voir les cartes d'approche


LFRD - Dinard

DERNIER METAR :
  • 161400Z AUTO 32009KT 9999 BKN011 18/15 Q1023 NOSIG

METARs EXPIRÉS :
  • 161330Z AUTO 33010KT 310V010 9999 BKN013 19/15 Q1023 NOSIG
  • 161300Z AUTO 34008KT 310V020 9999 BKN015 20/16 Q1023 NOSIG
  • 161230Z AUTO 35009KT 9999 FEW016 19/15 Q1023 BECMG BKN013
  • 161200Z AUTO 33008KT 300V360 9999 SCT014 19/15 Q1023 BECMG BKN013
  • 161130Z AUTO 34008KT 300V010 9999 BKN014 19/15 Q1023 BECMG SCT010

TAF TAF LFRD
Valide du 16 à 12h jusqu'au 17 à 12h UTC


161100Z 1612/1712 34010KT 9999 BKN013
TEMPO 1612/1618 SCT015
BECMG 1620/1622 BKN008
BECMG 1623/1702 04005KT
PROB40
TEMPO 1702/1708 4000 DZ BR BKN004
BECMG 1708/1710 03010KT SCT015 BKN030
ATIS : +33 2 99 16 81 50
Pas de NOTAMs connus pour ce terrain.



MET'MAP, la Météo Aéronautique d'un coup d'oeil ! - Copyright ORBIFLY Décembre 2007 - Disclaimer

ORBIFLY MET'MAP TEAM :

Programmation & Développement : Alexandra Zaïnal
Conception & Développement : Baudouin d'Aumeries
Co-Programmation & Développement : Marc-Olivier Méhu
Soutien technique & logistique : Manuel Goepfert

Contact : metmap@orbifly.com




SOURCES & CREDITS :

   NOAA